Time;durP1;ratioP1;P1;durP2;ratioP2;P2;SDS_P1;SDS_P2;PMS_P1;PMS_P2;Temp;Humidity;BMP_temperature;BMP_pressure;BME280_temperature;BME280_humidity;BME280_pressure;Samples;Min_cycle;Max_cycle;Signal;HPM_P1;HPM_P2
2023/10/05 00:01:13;;;;;;;8.45;2.58;;;;;;;;;;4917027;29;20032;-53
2023/10/05 00:03:43;;;;;;;13.68;2.88;;;;;;;;;;4898422;29;20036;-57
2023/10/05 00:06:16;;;;;;;6.75;2.55;;;;;;;;;;4919487;29;20028;-58
2023/10/05 00:08:44;;;;;;;8.77;2.55;;;;;;;;;;4916974;29;20035;-58
2023/10/05 00:11:10;;;;;;;10.23;2.63;;;;;;;;;;4923477;29;20044;-58
2023/10/05 00:13:36;;;;;;;9.02;2.95;;;;;;;;;;4918487;29;20036;-58
2023/10/05 00:16:05;;;;;;;12.90;3.05;;;;;;;;;;4915650;29;20028;-57
2023/10/05 00:18:32;;;;;;;10.43;3.10;;;;;;;;;;4913543;29;20047;-55
2023/10/05 00:20:59;;;;;;;9.00;3.15;;;;;;;;;;4915856;29;20042;-57
2023/10/05 00:23:27;;;;;;;12.40;3.45;;;;;;;;;;4912604;29;20438;-57
2023/10/05 00:25:55;;;;;;;12.40;3.20;;;;;;;;;;4914799;29;20123;-58
2023/10/05 00:28:23;;;;;;;9.18;2.85;;;;;;;;;;4914334;29;20059;-54
2023/10/05 00:30:50;;;;;;;9.05;2.85;;;;;;;;;;4913014;29;20043;-57
2023/10/05 00:33:17;;;;;;;10.77;2.90;;;;;;;;;;4915482;29;20481;-58
2023/10/05 00:35:43;;;;;;;7.85;3.10;;;;;;;;;;4897519;29;20997;-58
2023/10/05 00:38:16;;;;;;;10.20;3.42;;;;;;;;;;4897347;29;20036;-57
2023/10/05 00:40:57;;;;;;;8.32;3.10;;;;;;;;;;4897703;29;20039;-58
2023/10/05 00:45:49;;;;;;;11.65;3.47;;;;;;;;;;4915097;29;20473;-59
2023/10/05 00:48:28;;;;;;;12.40;3.47;;;;;;;;;;4915233;29;20036;-56
2023/10/05 00:50:59;;;;;;;10.50;3.35;;;;;;;;;;4915663;29;20060;-56
2023/10/05 00:53:28;;;;;;;9.63;2.90;;;;;;;;;;4907312;29;20039;-58
2023/10/05 00:58:55;;;;;;;12.57;3.40;;;;;;;;;;4904866;29;20051;-57
2023/10/05 01:01:27;;;;;;;8.15;3.28;;;;;;;;;;4913999;29;20043;-59
2023/10/05 01:06:42;;;;;;;12.93;3.67;;;;;;;;;;4914667;29;20055;-56
2023/10/05 01:14:43;;;;;;;11.13;3.42;;;;;;;;;;4931793;29;20046;-58
2023/10/05 01:17:08;;;;;;;10.63;3.50;;;;;;;;;;4932359;29;20040;-56
2023/10/05 01:19:38;;;;;;;8.98;3.28;;;;;;;;;;4915185;29;20044;-59
2023/10/05 01:22:08;;;;;;;12.13;3.47;;;;;;;;;;4939758;29;20091;-55
2023/10/05 01:24:36;;;;;;;11.18;3.75;;;;;;;;;;4929501;29;20040;-58
2023/10/05 01:27:03;;;;;;;10.23;3.30;;;;;;;;;;4936596;29;20117;-58
2023/10/05 01:29:28;;;;;;;11.38;4.10;;;;;;;;;;4930814;29;20036;-58
2023/10/05 01:31:55;;;;;;;8.60;3.33;;;;;;;;;;4934515;29;20366;-57
2023/10/05 01:34:20;;;;;;;12.38;3.22;;;;;;;;;;4933705;29;20032;-56
2023/10/05 01:36:46;;;;;;;15.02;4.65;;;;;;;;;;4934972;29;20401;-58
2023/10/05 01:39:12;;;;;;;7.97;3.50;;;;;;;;;;4938999;29;20536;-58
2023/10/05 01:41:38;;;;;;;10.52;4.22;;;;;;;;;;4935280;29;20035;-54
2023/10/05 01:44:04;;;;;;;10.73;3.80;;;;;;;;;;4937816;29;20044;-58
2023/10/05 01:46:36;;;;;;;13.07;3.80;;;;;;;;;;4938961;29;20042;-63
2023/10/05 01:49:01;;;;;;;13.63;3.85;;;;;;;;;;4940763;29;20039;-56
2023/10/05 01:51:28;;;;;;;10.10;3.50;;;;;;;;;;4943529;29;20031;-53
2023/10/05 01:54:04;;;;;;;8.00;3.13;;;;;;;;;;4940265;29;20477;-57
2023/10/05 01:56:32;;;;;;;8.27;3.47;;;;;;;;;;4921724;29;20468;-58
2023/10/05 01:59:00;;;;;;;9.38;3.83;;;;;;;;;;4938479;29;20047;-58
2023/10/05 02:01:28;;;;;;;14.85;3.97;;;;;;;;;;4938092;29;20031;-57
2023/10/05 02:03:56;;;;;;;10.73;4.10;;;;;;;;;;4909890;29;20035;-57
2023/10/05 02:06:22;;;;;;;8.50;3.58;;;;;;;;;;4934761;29;20115;-59
2023/10/05 02:08:47;;;;;;;10.35;3.45;;;;;;;;;;4937965;29;20114;-53
2023/10/05 02:11:24;;;;;;;11.25;3.50;;;;;;;;;;4940490;29;20062;-58
2023/10/05 02:13:50;;;;;;;13.95;3.03;;;;;;;;;;4937254;29;20521;-57
2023/10/05 02:16:18;;;;;;;9.65;3.30;;;;;;;;;;4920684;29;20029;-58
2023/10/05 02:18:47;;;;;;;10.95;3.38;;;;;;;;;;4919448;29;20033;-55
2023/10/05 02:21:17;;;;;;;8.25;3.00;;;;;;;;;;4934607;29;20048;-57
2023/10/05 02:23:44;;;;;;;12.13;3.75;;;;;;;;;;4921398;29;20064;-58
2023/10/05 02:26:33;;;;;;;9.10;3.42;;;;;;;;;;4935299;29;20035;-57
2023/10/05 02:28:58;;;;;;;9.50;3.03;;;;;;;;;;4936325;29;20024;-59
2023/10/05 02:31:28;;;;;;;11.32;3.15;;;;;;;;;;4929428;29;20058;-58
2023/10/05 02:33:55;;;;;;;9.55;3.35;;;;;;;;;;4938143;29;20358;-57
2023/10/05 02:36:21;;;;;;;9.50;3.03;;;;;;;;;;4939514;29;20524;-57
2023/10/05 02:38:53;;;;;;;12.35;3.45;;;;;;;;;;4935405;29;20028;-57
2023/10/05 02:41:25;;;;;;;13.55;3.17;;;;;;;;;;4904082;29;20028;-54
2023/10/05 02:43:52;;;;;;;10.07;3.47;;;;;;;;;;4931103;29;20537;-56
2023/10/05 02:46:20;;;;;;;10.25;4.20;;;;;;;;;;4935114;29;20044;-57
2023/10/05 02:48:46;;;;;;;10.65;3.15;;;;;;;;;;4914248;29;20500;-58
2023/10/05 02:51:13;;;;;;;10.18;3.40;;;;;;;;;;4936915;29;20075;-58
2023/10/05 02:53:46;;;;;;;8.32;3.05;;;;;;;;;;4931705;29;20023;-56
2023/10/05 02:56:27;;;;;;;8.82;2.95;;;;;;;;;;4928190;29;20123;-57
2023/10/05 02:59:02;;;;;;;;;;;;;;;;;;4923791;29;20036;-54
2023/10/05 03:01:27;;;;;;;7.28;3.13;;;;;;;;;;4931410;29;20015;-55
2023/10/05 03:03:55;;;;;;;10.10;3.33;;;;;;;;;;4918626;29;20129;-56
2023/10/05 03:06:22;;;;;;;10.18;3.50;;;;;;;;;;4927078;29;20368;-58
2023/10/05 03:08:50;;;;;;;10.30;3.40;;;;;;;;;;4926783;29;20109;-55
2023/10/05 03:11:18;;;;;;;10.43;3.20;;;;;;;;;;4937292;29;20085;-59
2023/10/05 03:13:45;;;;;;;9.25;3.28;;;;;;;;;;4919262;29;20044;-58
2023/10/05 03:16:11;;;;;;;9.43;3.08;;;;;;;;;;4934405;29;20036;-59
2023/10/05 03:18:43;;;;;;;12.85;3.50;;;;;;;;;;4933770;29;20156;-56
2023/10/05 03:21:17;;;;;;;7.90;3.17;;;;;;;;;;4935401;29;20032;-58
2023/10/05 03:23:44;;;;;;;8.82;3.17;;;;;;;;;;4935087;29;20158;-57
2023/10/05 03:26:11;;;;;;;14.32;3.75;;;;;;;;;;4921416;29;20034;-56
2023/10/05 03:28:37;;;;;;;10.23;2.92;;;;;;;;;;4938052;29;20405;-57
2023/10/05 03:31:12;;;;;;;8.13;3.03;;;;;;;;;;4935970;29;20172;-56
2023/10/05 03:33:39;;;;;;;12.25;3.00;;;;;;;;;;4915863;29;20806;-53
2023/10/05 03:36:13;;;;;;;9.05;3.00;;;;;;;;;;4935613;29;20039;-54
2023/10/05 03:38:39;;;;;;;8.63;3.10;;;;;;;;;;4918773;29;20035;-58
2023/10/05 03:41:08;;;;;;;8.88;2.90;;;;;;;;;;4936537;29;20035;-54
2023/10/05 03:43:34;;;;;;;8.48;2.78;;;;;;;;;;4932857;29;20488;-58
2023/10/05 03:46:08;;;;;;;6.55;2.80;;;;;;;;;;4917810;29;20040;-55
2023/10/05 03:48:41;;;;;;;7.07;2.92;;;;;;;;;;4917469;29;20028;-58
2023/10/05 03:51:17;;;;;;;10.52;2.95;;;;;;;;;;4939000;29;20035;-55
2023/10/05 03:53:51;;;;;;;11.32;2.80;;;;;;;;;;4933007;29;20031;-54
2023/10/05 03:56:19;;;;;;;15.80;3.25;;;;;;;;;;4935068;29;20429;-54
2023/10/05 03:58:47;;;;;;;10.10;3.30;;;;;;;;;;4942168;29;20042;-57
2023/10/05 04:01:12;;;;;;;14.20;3.22;;;;;;;;;;4933634;29;20028;-56
2023/10/05 04:03:40;;;;;;;8.93;3.40;;;;;;;;;;4933312;29;20396;-54
2023/10/05 04:06:17;;;;;;;12.10;2.90;;;;;;;;;;4934871;29;20031;-55
2023/10/05 04:08:44;;;;;;;10.00;3.33;;;;;;;;;;4933959;29;20164;-54
2023/10/05 04:11:11;;;;;;;8.52;3.03;;;;;;;;;;4934665;29;20075;-58
2023/10/05 04:13:38;;;;;;;8.90;2.90;;;;;;;;;;4932437;29;20044;-56
2023/10/05 04:16:07;;;;;;;9.93;2.97;;;;;;;;;;4935047;29;20473;-57
2023/10/05 04:18:33;;;;;;;8.07;2.92;;;;;;;;;;4933046;29;20374;-58
2023/10/05 04:20:58;;;;;;;8.63;2.95;;;;;;;;;;4917653;29;20035;-57
2023/10/05 04:23:27;;;;;;;9.48;2.58;;;;;;;;;;4933952;29;20028;-58
2023/10/05 04:25:54;;;;;;;12.25;3.05;;;;;;;;;;4934519;29;20400;-58
2023/10/05 04:28:39;;;;;;;11.82;2.90;;;;;;;;;;4936831;29;20488;-57
2023/10/05 04:31:14;;;;;;;8.32;3.15;;;;;;;;;;4930997;29;20042;-58
2023/10/05 04:33:43;;;;;;;12.30;3.08;;;;;;;;;;4916166;29;20051;-58
2023/10/05 04:36:09;;;;;;;7.05;3.00;;;;;;;;;;4935192;29;20107;-58
2023/10/05 04:38:34;;;;;;;9.68;3.28;;;;;;;;;;4932915;29;20044;-57
2023/10/05 04:41:00;;;;;;;8.20;2.90;;;;;;;;;;4933272;29;20433;-56
2023/10/05 04:43:25;;;;;;;6.60;2.88;;;;;;;;;;4933752;29;20046;-59
2023/10/05 04:45:51;;;;;;;8.07;2.83;;;;;;;;;;4933494;29;20533;-57
2023/10/05 04:48:19;;;;;;;11.05;2.75;;;;;;;;;;4935176;29;20031;-56
2023/10/05 04:50:47;;;;;;;7.60;3.30;;;;;;;;;;4935982;29;20097;-56
2023/10/05 04:53:14;;;;;;;10.10;3.30;;;;;;;;;;4933409;29;20152;-56
2023/10/05 04:55:44;;;;;;;7.03;2.92;;;;;;;;;;4932386;29;20389;-55
2023/10/05 04:58:31;;;;;;;13.07;2.97;;;;;;;;;;4932833;29;20039;-55
2023/10/05 05:06:12;;;;;;;10.20;2.95;;;;;;;;;;4933786;29;20050;-55
2023/10/05 05:08:38;;;;;;;10.30;3.35;;;;;;;;;;4913593;29;20031;-57
2023/10/05 05:11:18;;;;;;;10.20;2.95;;;;;;;;;;4915837;29;20079;-53
2023/10/05 05:13:48;;;;;;;10.95;3.30;;;;;;;;;;4932306;29;20896;-57
2023/10/05 05:16:15;;;;;;;10.60;3.20;;;;;;;;;;4932673;29;20052;-57
2023/10/05 05:18:42;;;;;;;7.28;2.92;;;;;;;;;;4935284;29;20091;-57
2023/10/05 05:21:07;;;;;;;7.75;2.95;;;;;;;;;;4934312;29;20042;-56
2023/10/05 05:23:36;;;;;;;6.93;2.90;;;;;;;;;;4933854;29;20036;-57
2023/10/05 05:26:03;;;;;;;10.02;3.10;;;;;;;;;;4935030;29;20032;-56
2023/10/05 05:28:30;;;;;;;10.63;3.33;;;;;;;;;;4934749;29;20460;-58
2023/10/05 05:30:55;;;;;;;8.80;3.00;;;;;;;;;;4939863;29;20119;-59
2023/10/05 05:33:20;;;;;;;14.90;3.40;;;;;;;;;;4944647;29;20467;-58
2023/10/05 05:35:46;;;;;;;11.23;3.42;;;;;;;;;;4933081;29;20723;-57
2023/10/05 05:38:11;;;;;;;13.68;3.10;;;;;;;;;;4932461;29;20099;-58
2023/10/05 05:40:38;;;;;;;14.23;3.63;;;;;;;;;;4930582;29;20035;-60
2023/10/05 05:43:08;;;;;;;10.18;3.35;;;;;;;;;;4914543;29;20465;-61
2023/10/05 05:45:34;;;;;;;15.55;3.53;;;;;;;;;;4931359;29;20118;-59
2023/10/05 05:48:00;;;;;;;12.75;3.28;;;;;;;;;;4915388;29;20095;-58
2023/10/05 05:50:29;;;;;;;10.13;3.90;;;;;;;;;;4915691;29;20044;-59
2023/10/05 05:52:56;;;;;;;10.85;3.25;;;;;;;;;;4933441;29;20372;-59
2023/10/05 05:55:22;;;;;;;8.55;2.90;;;;;;;;;;4932567;29;20042;-62
2023/10/05 05:57:50;;;;;;;8.75;3.33;;;;;;;;;;4933008;29;20105;-59
2023/10/05 06:00:18;;;;;;;11.05;3.60;;;;;;;;;;4933951;29;20028;-60
2023/10/05 06:02:43;;;;;;;10.95;3.60;;;;;;;;;;4933334;29;20043;-60
2023/10/05 06:05:12;;;;;;;10.23;3.45;;;;;;;;;;4933909;29;20030;-56
2023/10/05 06:07:42;;;;;;;10.85;3.47;;;;;;;;;;4931382;29;20031;-56
2023/10/05 06:10:12;;;;;;;10.60;3.60;;;;;;;;;;4933550;29;20400;-60
2023/10/05 06:12:50;;;;;;;8.93;3.20;;;;;;;;;;4933141;29;20087;-60
2023/10/05 06:15:16;;;;;;;12.73;3.28;;;;;;;;;;4934082;29;20024;-60
2023/10/05 06:17:43;;;;;;;12.38;3.35;;;;;;;;;;4933338;29;20386;-60
2023/10/05 06:20:13;;;;;;;9.77;3.20;;;;;;;;;;4933767;29;20039;-59
2023/10/05 06:22:45;;;;;;;12.20;3.10;;;;;;;;;;4927577;29;20039;-61
2023/10/05 06:25:17;;;;;;;10.07;3.50;;;;;;;;;;4923250;29;20501;-60
2023/10/05 06:27:48;;;;;;;14.68;3.58;;;;;;;;;;4935499;29;20039;-60
2023/10/05 06:30:15;;;;;;;8.18;3.00;;;;;;;;;;4936304;29;20444;-60
2023/10/05 06:32:43;;;;;;;12.60;3.47;;;;;;;;;;4935665;29;20036;-59
2023/10/05 06:35:09;;;;;;;12.45;3.63;;;;;;;;;;4935972;29;20045;-60
2023/10/05 06:37:35;;;;;;;14.07;3.53;;;;;;;;;;4933736;29;20196;-59
2023/10/05 06:40:09;;;;;;;11.38;3.45;;;;;;;;;;4935553;29;20063;-58
2023/10/05 06:42:34;;;;;;;8.45;3.50;;;;;;;;;;4936134;29;20434;-59
2023/10/05 06:45:00;;;;;;;15.35;3.65;;;;;;;;;;4937239;29;20032;-58
2023/10/05 06:47:36;;;;;;;13.30;3.90;;;;;;;;;;4936882;29;20047;-61
2023/10/05 06:50:06;;;;;;;10.57;3.42;;;;;;;;;;4936575;29;20472;-59
2023/10/05 06:52:36;;;;;;;11.88;3.47;;;;;;;;;;4917104;29;20091;-60
2023/10/05 06:55:07;;;;;;;11.20;3.90;;;;;;;;;;4934925;29;20051;-59
2023/10/05 06:57:35;;;;;;;8.52;3.80;;;;;;;;;;4919364;29;20043;-59
2023/10/05 07:00:11;;;;;;;15.35;3.97;;;;;;;;;;4936688;29;20039;-59
2023/10/05 07:02:38;;;;;;;10.50;3.90;;;;;;;;;;4933910;29;20122;-57
2023/10/05 07:05:05;;;;;;;10.13;4.10;;;;;;;;;;4919709;29;20036;-60
2023/10/05 07:07:32;;;;;;;13.98;3.80;;;;;;;;;;4936308;29;20115;-60
2023/10/05 07:09:58;;;;;;;9.38;3.60;;;;;;;;;;4934287;29;20052;-61
2023/10/05 07:12:24;;;;;;;12.77;3.72;;;;;;;;;;4936453;29;20039;-60
2023/10/05 07:14:50;;;;;;;12.60;3.92;;;;;;;;;;4929739;29;20036;-59
2023/10/05 07:17:16;;;;;;;8.95;3.58;;;;;;;;;;4900329;29;20123;-60
2023/10/05 07:19:47;;;;;;;12.27;4.18;;;;;;;;;;4915823;29;20036;-61
2023/10/05 07:22:13;;;;;;;9.65;3.92;;;;;;;;;;4916107;29;20540;-60
2023/10/05 07:24:39;;;;;;;13.05;3.78;;;;;;;;;;4914858;29;20114;-61
2023/10/05 07:27:05;;;;;;;12.55;3.60;;;;;;;;;;4899557;29;20046;-59
2023/10/05 07:29:30;;;;;;;14.80;4.25;;;;;;;;;;4915611;29;20386;-59
2023/10/05 07:31:56;;;;;;;10.80;3.65;;;;;;;;;;4896178;29;20310;-58
2023/10/05 07:34:21;;;;;;;8.57;3.47;;;;;;;;;;4909890;29;20024;-58
2023/10/05 07:36:46;;;;;;;10.63;3.60;;;;;;;;;;4921508;29;20040;-59
2023/10/05 07:39:13;;;;;;;10.98;3.95;;;;;;;;;;4917208;29;20032;-60
2023/10/05 07:41:39;;;;;;;11.15;4.07;;;;;;;;;;4916123;29;20036;-60
2023/10/05 07:44:05;;;;;;;6.75;3.78;;;;;;;;;;4915530;29;20084;-57
2023/10/05 07:46:30;;;;;;;13.70;4.03;;;;;;;;;;4916417;29;20043;-59
2023/10/05 07:48:56;;;;;;;13.02;4.07;;;;;;;;;;4915226;29;20044;-60
2023/10/05 07:51:22;;;;;;;8.05;3.92;;;;;;;;;;4913706;29;20024;-58
2023/10/05 07:53:47;;;;;;;8.55;3.55;;;;;;;;;;4915870;29;20457;-57
2023/10/05 07:56:13;;;;;;;11.77;3.70;;;;;;;;;;4916528;29;20032;-58
2023/10/05 07:58:44;;;;;;;13.23;4.07;;;;;;;;;;4916003;29;20084;-60
2023/10/05 08:01:10;;;;;;;12.75;3.67;;;;;;;;;;4915500;29;20043;-59
2023/10/05 08:03:39;;;;;;;11.23;3.67;;;;;;;;;;4914108;29;20040;-59
2023/10/05 08:06:09;;;;;;;11.38;3.38;;;;;;;;;;4916614;29;20052;-59
2023/10/05 08:08:37;;;;;;;8.85;3.17;;;;;;;;;;4916481;29;20059;-60
2023/10/05 08:11:02;;;;;;;7.32;3.13;;;;;;;;;;4914100;29;20063;-59
2023/10/05 08:13:31;;;;;;;10.93;3.55;;;;;;;;;;4917129;29;20043;-60
2023/10/05 08:15:56;;;;;;;9.02;3.05;;;;;;;;;;4934398;29;20036;-60
2023/10/05 08:18:22;;;;;;;12.82;3.97;;;;;;;;;;4933046;29;20035;-59
2023/10/05 08:20:47;;;;;;;11.60;3.08;;;;;;;;;;4934317;29;20042;-59
2023/10/05 08:23:13;;;;;;;9.93;3.58;;;;;;;;;;4935413;29;20039;-60
2023/10/05 08:25:38;;;;;;;11.45;3.55;;;;;;;;;;4934786;29;20042;-59
2023/10/05 08:28:04;;;;;;;10.52;4.10;;;;;;;;;;4935299;29;20055;-59
2023/10/05 08:30:36;;;;;;;10.40;3.60;;;;;;;;;;4934735;29;20119;-60
2023/10/05 08:33:11;;;;;;;15.00;3.53;;;;;;;;;;4934209;29;20629;-60
2023/10/05 08:35:40;;;;;;;8.57;3.30;;;;;;;;;;4934565;29;20032;-59
2023/10/05 08:38:09;;;;;;;7.90;3.30;;;;;;;;;;4930770;29;20392;-61
2023/10/05 08:43:12;;;;;;;7.88;3.03;;;;;;;;;;4934479;29;20039;-60
2023/10/05 08:45:46;;;;;;;12.48;3.35;;;;;;;;;;4933741;29;20373;-61
2023/10/05 08:48:18;;;;;;;10.10;3.80;;;;;;;;;;4934451;29;20441;-59
2023/10/05 08:50:46;;;;;;;8.88;3.08;;;;;;;;;;4916970;29;20156;-61
2023/10/05 08:53:13;;;;;;;11.18;3.67;;;;;;;;;;4932894;29;20043;-61
2023/10/05 08:55:42;;;;;;;9.10;3.50;;;;;;;;;;4933921;29;20392;-60
2023/10/05 08:58:09;;;;;;;14.88;3.60;;;;;;;;;;4915812;29;20424;-60
2023/10/05 09:00:40;;;;;;;15.93;3.65;;;;;;;;;;4916033;29;20032;-60
2023/10/05 09:03:29;;;;;;;10.38;3.28;;;;;;;;;;4930127;29;20038;-60
2023/10/05 09:06:13;;;;;;;7.22;2.95;;;;;;;;;;4932974;29;20047;-58
2023/10/05 09:09:11;;;;;;;9.68;3.28;;;;;;;;;;4934344;29;20076;-61
2023/10/05 09:11:32;;;;;;;11.60;2.95;;;;;;;;;;4931124;29;20416;-61
2023/10/05 09:17:08;;;;;;;9.52;2.92;;;;;;;;;;4904370;29;20054;-60
2023/10/05 09:19:34;;;;;;;10.50;2.92;;;;;;;;;;4917289;29;20032;-60
2023/10/05 09:24:29;;;;;;;11.65;3.20;;;;;;;;;;4931144;29;20031;-60
2023/10/05 09:26:56;;;;;;;10.98;3.40;;;;;;;;;;4916345;29;20047;-59
2023/10/05 09:29:23;;;;;;;8.68;3.03;;;;;;;;;;4933955;29;20035;-59
2023/10/05 09:31:54;;;;;;;8.68;3.03;;;;;;;;;;4932990;29;20042;-59
2023/10/05 09:34:38;;;;;;;9.27;2.67;;;;;;;;;;4934463;29;20031;-60
2023/10/05 09:37:06;;;;;;;9.48;3.35;;;;;;;;;;4933965;29;20035;-60
2023/10/05 09:39:42;;;;;;;8.38;2.90;;;;;;;;;;4931899;29;20366;-60
2023/10/05 09:42:13;;;;;;;7.55;3.00;;;;;;;;;;4933846;29;20091;-60
2023/10/05 09:44:43;;;;;;;10.45;3.08;;;;;;;;;;4934353;29;20034;-59
2023/10/05 09:47:12;;;;;;;9.90;3.10;;;;;;;;;;4914046;29;20044;-60
2023/10/05 09:49:39;;;;;;;10.15;2.60;;;;;;;;;;4933693;29;20099;-60
2023/10/05 09:52:08;;;;;;;9.30;3.10;;;;;;;;;;4933442;29;20047;-60
2023/10/05 09:54:36;;;;;;;8.27;3.00;;;;;;;;;;4932047;29;20083;-60
2023/10/05 09:57:10;;;;;;;7.45;2.60;;;;;;;;;;4933189;29;20035;-60
2023/10/05 09:59:43;;;;;;;7.95;3.58;;;;;;;;;;4938166;29;20511;-59
2023/10/05 10:02:16;;;;;;;9.18;2.80;;;;;;;;;;4937659;29;20032;-60
2023/10/05 10:04:43;;;;;;;7.53;3.08;;;;;;;;;;4937709;29;20028;-56
2023/10/05 10:07:22;;;;;;;8.02;2.67;;;;;;;;;;4920542;29;20052;-59
2023/10/05 10:09:53;;;;;;;10.43;3.03;;;;;;;;;;4932986;29;20107;-58
2023/10/05 10:12:38;;;;;;;13.75;3.03;;;;;;;;;;4937666;29;20126;-58
2023/10/05 10:15:24;;;;;;;8.93;3.05;;;;;;;;;;4935152;29;20110;-57
2023/10/05 10:18:03;;;;;;;8.35;3.08;;;;;;;;;;4934406;29;20036;-59
2023/10/05 10:20:37;;;;;;;7.03;2.70;;;;;;;;;;4937216;29;20119;-59
2023/10/05 10:23:14;;;;;;;9.02;2.90;;;;;;;;;;4936486;29;20115;-59
2023/10/05 10:25:44;;;;;;;9.50;3.05;;;;;;;;;;4937757;29;20076;-60
2023/10/05 10:31:16;;;;;;;6.90;2.30;;;;;;;;;;4936940;29;20035;-59
2023/10/05 10:33:43;;;;;;;10.75;2.90;;;;;;;;;;4934814;29;20040;-60
2023/10/05 10:36:22;;;;;;;8.57;2.72;;;;;;;;;;4918599;29;20606;-60
2023/10/05 10:38:50;;;;;;;10.70;2.90;;;;;;;;;;4936851;29;20048;-60
2023/10/05 10:41:16;;;;;;;12.23;2.70;;;;;;;;;;4936124;29;20042;-60
2023/10/05 10:43:49;;;;;;;13.30;2.72;;;;;;;;;;4932347;29;20506;-61
2023/10/05 10:46:29;;;;;;;10.68;3.50;;;;;;;;;;4925279;29;20035;-61
2023/10/05 10:49:00;;;;;;;12.07;3.13;;;;;;;;;;4936781;29;20035;-61
2023/10/05 10:51:32;;;;;;;8.70;2.80;;;;;;;;;;4936869;29;20044;-61
2023/10/05 10:54:02;;;;;;;6.90;2.85;;;;;;;;;;4936158;29;20078;-60
2023/10/05 10:56:34;;;;;;;7.28;2.42;;;;;;;;;;4937159;29;20078;-60
2023/10/05 10:59:10;;;;;;;9.98;2.80;;;;;;;;;;4936869;29;20473;-60
2023/10/05 11:01:43;;;;;;;9.48;2.95;;;;;;;;;;4936711;29;20035;-59
2023/10/05 11:04:25;;;;;;;12.50;2.80;;;;;;;;;;4936485;29;20031;-59
2023/10/05 11:07:08;;;;;;;8.85;2.55;;;;;;;;;;4938261;29;20051;-59
2023/10/05 11:09:35;;;;;;;8.23;2.70;;;;;;;;;;4950884;28;20043;-60
2023/10/05 11:12:10;;;;;;;7.50;2.40;;;;;;;;;;4948846;29;20036;-60
2023/10/05 11:14:42;;;;;;;7.55;2.35;;;;;;;;;;4944125;29;20024;-60
2023/10/05 11:17:34;;;;;;;8.32;2.70;;;;;;;;;;4949471;29;20034;-59
2023/10/05 11:20:12;;;;;;;12.57;2.65;;;;;;;;;;4918112;29;20114;-60
2023/10/05 11:22:42;;;;;;;6.63;1.92;;;;;;;;;;4936441;29;20059;-60
2023/10/05 11:25:14;;;;;;;10.82;3.22;;;;;;;;;;4936306;29;20031;-60
2023/10/05 11:27:56;;;;;;;9.73;2.70;;;;;;;;;;4937340;29;20042;-60
2023/10/05 11:30:24;;;;;;;9.80;2.78;;;;;;;;;;4936310;29;20044;-59
2023/10/05 11:32:56;;;;;;;9.43;2.70;;;;;;;;;;4924537;29;20036;-61
2023/10/05 11:35:28;;;;;;;8.30;2.60;;;;;;;;;;4917459;29;20035;-60
2023/10/05 11:37:58;;;;;;;8.10;3.00;;;;;;;;;;4930001;29;20043;-61
2023/10/05 11:40:30;;;;;;;6.40;2.97;;;;;;;;;;4936632;29;20499;-60
2023/10/05 11:42:56;;;;;;;8.48;3.30;;;;;;;;;;4933674;29;20042;-60
2023/10/05 11:45:22;;;;;;;9.05;3.15;;;;;;;;;;4932084;29;20036;-60
2023/10/05 11:47:52;;;;;;;8.18;3.42;;;;;;;;;;4924423;29;20397;-60
2023/10/05 11:50:25;;;;;;;8.38;2.92;;;;;;;;;;4934494;29;20074;-61
2023/10/05 11:52:54;;;;;;;6.93;2.40;;;;;;;;;;4934577;29;20039;-60
2023/10/05 11:55:20;;;;;;;7.47;2.42;;;;;;;;;;4918936;29;20091;-58
2023/10/05 11:57:46;;;;;;;7.78;2.45;;;;;;;;;;4933430;29;20032;-61
2023/10/05 12:00:13;;;;;;;7.60;2.40;;;;;;;;;;4949297;29;20437;-60
2023/10/05 12:02:39;;;;;;;6.30;2.60;;;;;;;;;;4935582;29;20114;-60
2023/10/05 12:05:05;;;;;;;7.25;2.25;;;;;;;;;;4925823;29;20196;-60
2023/10/05 12:07:30;;;;;;;5.63;2.70;;;;;;;;;;4935579;29;20028;-60
2023/10/05 12:09:56;;;;;;;7.22;2.42;;;;;;;;;;4928064;29;20059;-60
2023/10/05 12:12:22;;;;;;;9.20;2.60;;;;;;;;;;4916302;29;20036;-60
2023/10/05 12:14:48;;;;;;;6.35;2.80;;;;;;;;;;4915923;29;20130;-60
2023/10/05 12:17:13;;;;;;;5.93;2.60;;;;;;;;;;4915728;29;20040;-60
2023/10/05 12:19:39;;;;;;;9.60;2.90;;;;;;;;;;4899271;29;20119;-60
2023/10/05 12:22:06;;;;;;;6.50;3.00;;;;;;;;;;4914695;29;20801;-60
2023/10/05 12:24:33;;;;;;;7.35;2.55;;;;;;;;;;4896437;29;20034;-59
2023/10/05 12:26:59;;;;;;;9.02;2.60;;;;;;;;;;4896799;29;20060;-60
2023/10/05 12:29:26;;;;;;;6.55;2.45;;;;;;;;;;4898877;29;20044;-60
2023/10/05 12:31:51;;;;;;;6.38;2.78;;;;;;;;;;4915255;29;20070;-60
2023/10/05 12:34:18;;;;;;;7.95;2.60;;;;;;;;;;4898642;29;20040;-60
2023/10/05 12:36:48;;;;;;;7.93;2.47;;;;;;;;;;4897199;29;20059;-60
2023/10/05 12:39:14;;;;;;;;;;;;;;;;;;4900457;29;20541;-60
2023/10/05 12:41:42;;;;;;;8.15;2.53;;;;;;;;;;4931002;29;20360;-59
2023/10/05 12:44:09;;;;;;;5.45;2.55;;;;;;;;;;4906771;29;20068;-59
2023/10/05 12:46:41;;;;;;;12.48;2.55;;;;;;;;;;4915915;29;20032;-60
2023/10/05 12:49:11;;;;;;;7.93;2.60;;;;;;;;;;4915534;29;20044;-59
2023/10/05 12:51:37;;;;;;;7.75;3.05;;;;;;;;;;4915873;29;20100;-59
2023/10/05 12:54:18;;;;;;;11.38;3.08;;;;;;;;;;4903221;29;20033;-60
2023/10/05 12:56:45;;;;;;;10.75;2.88;;;;;;;;;;4903245;29;20450;-59
2023/10/05 12:59:10;;;;;;;6.70;2.60;;;;;;;;;;4895579;29;20089;-60
2023/10/05 13:01:41;;;;;;;5.15;2.13;;;;;;;;;;4899849;29;20427;-60
2023/10/05 13:04:11;;;;;;;9.60;2.85;;;;;;;;;;4899837;29;20047;-60
2023/10/05 13:06:40;;;;;;;7.03;2.75;;;;;;;;;;4897022;29;20065;-60
2023/10/05 13:09:13;;;;;;;7.25;2.70;;;;;;;;;;4909443;29;20819;-60
2023/10/05 13:11:45;;;;;;;7.93;2.40;;;;;;;;;;4934809;29;20552;-60
2023/10/05 13:14:15;;;;;;;8.05;2.85;;;;;;;;;;4933968;29;20508;-60
2023/10/05 13:16:41;;;;;;;6.38;2.35;;;;;;;;;;4930329;29;20035;-59
2023/10/05 13:19:09;;;;;;;7.65;2.80;;;;;;;;;;4933611;29;20034;-60
2023/10/05 13:21:35;;;;;;;6.88;2.70;;;;;;;;;;4931854;29;20397;-60
2023/10/05 13:24:02;;;;;;;7.85;2.80;;;;;;;;;;4931914;29;20031;-61
2023/10/05 13:26:28;;;;;;;6.53;2.50;;;;;;;;;;4896393;29;20176;-59
2023/10/05 13:28:59;;;;;;;8.45;2.75;;;;;;;;;;4930743;29;20119;-61
2023/10/05 13:31:25;;;;;;;9.35;2.72;;;;;;;;;;4934235;29;20065;-60
2023/10/05 13:33:54;;;;;;;7.10;2.90;;;;;;;;;;4929391;29;20036;-60
2023/10/05 13:36:21;;;;;;;7.32;2.95;;;;;;;;;;4934475;29;20468;-60
2023/10/05 13:38:46;;;;;;;7.97;2.63;;;;;;;;;;4933279;29;20465;-61
2023/10/05 13:41:15;;;;;;;7.05;2.70;;;;;;;;;;4934442;29;20047;-60
2023/10/05 13:43:45;;;;;;;9.55;2.58;;;;;;;;;;4916830;29;20433;-60
2023/10/05 13:46:16;;;;;;;7.88;2.65;;;;;;;;;;4934177;29;20027;-58
2023/10/05 13:48:49;;;;;;;10.57;3.58;;;;;;;;;;4933188;29;20043;-59
2023/10/05 13:51:16;;;;;;;8.52;2.50;;;;;;;;;;4933142;29;20087;-59
2023/10/05 13:53:46;;;;;;;8.63;3.00;;;;;;;;;;4933396;29;20020;-60
2023/10/05 13:56:14;;;;;;;8.00;2.50;;;;;;;;;;4932475;29;20556;-61
2023/10/05 13:58:45;;;;;;;7.95;2.97;;;;;;;;;;4933221;29;20031;-60
2023/10/05 14:01:17;;;;;;;9.25;2.80;;;;;;;;;;4933592;29;20039;-60
2023/10/05 14:03:47;;;;;;;7.78;2.70;;;;;;;;;;4933760;29;20092;-61
2023/10/05 14:06:13;;;;;;;12.40;3.20;;;;;;;;;;4934085;29;20476;-59
2023/10/05 14:08:38;;;;;;;5.95;2.40;;;;;;;;;;4930606;29;20097;-60
2023/10/05 14:11:04;;;;;;;9.02;2.67;;;;;;;;;;4930525;29;20032;-59
2023/10/05 14:13:29;;;;;;;8.90;2.70;;;;;;;;;;4928215;29;20040;-58
2023/10/05 14:15:55;;;;;;;8.60;2.70;;;;;;;;;;4914048;29;20397;-60
2023/10/05 14:18:22;;;;;;;7.47;2.83;;;;;;;;;;4915008;29;20449;-60
2023/10/05 14:20:51;;;;;;;10.45;2.92;;;;;;;;;;4897255;29;20036;-59
2023/10/05 14:23:18;;;;;;;6.47;2.50;;;;;;;;;;4915244;29;20055;-61
2023/10/05 14:25:48;;;;;;;7.28;2.58;;;;;;;;;;4914021;29;20047;-58
2023/10/05 14:28:14;;;;;;;6.93;2.30;;;;;;;;;;4921272;29;20024;-59
2023/10/05 14:30:43;;;;;;;7.03;2.60;;;;;;;;;;4931483;29;20032;-59
2023/10/05 14:33:16;;;;;;;9.50;3.08;;;;;;;;;;4931272;29;20080;-59
2023/10/05 14:35:41;;;;;;;9.38;2.50;;;;;;;;;;4914609;29;20036;-59
2023/10/05 14:38:10;;;;;;;6.40;2.47;;;;;;;;;;4914062;29;20036;-60
2023/10/05 14:40:37;;;;;;;8.77;2.72;;;;;;;;;;4915170;29;20032;-60
2023/10/05 14:43:05;;;;;;;6.25;2.40;;;;;;;;;;4913877;29;20032;-60
2023/10/05 14:45:31;;;;;;;12.45;2.67;;;;;;;;;;4930764;29;20036;-59
2023/10/05 14:48:01;;;;;;;10.95;2.88;;;;;;;;;;4927807;29;20465;-59
2023/10/05 14:50:27;;;;;;;7.47;2.55;;;;;;;;;;4918037;29;20043;-59
2023/10/05 14:52:53;;;;;;;7.95;2.63;;;;;;;;;;4916934;29;20138;-59
2023/10/05 14:55:20;;;;;;;8.82;3.05;;;;;;;;;;4918159;29;20537;-59
2023/10/05 14:57:46;;;;;;;7.15;2.53;;;;;;;;;;4917403;29;20054;-58
2023/10/05 15:00:14;;;;;;;10.27;2.65;;;;;;;;;;4899249;29;20032;-60
2023/10/05 15:02:43;;;;;;;9.52;2.53;;;;;;;;;;4903851;29;20059;-60
2023/10/05 15:05:11;;;;;;;7.72;2.72;;;;;;;;;;4926064;29;20028;-59
2023/10/05 15:07:40;;;;;;;10.05;2.63;;;;;;;;;;4923720;29;20559;-58
2023/10/05 15:10:19;;;;;;;7.00;2.58;;;;;;;;;;4924412;29;20054;-59
2023/10/05 15:12:46;;;;;;;7.28;2.50;;;;;;;;;;4948967;29;20465;-57
2023/10/05 15:15:17;;;;;;;8.30;2.55;;;;;;;;;;4955771;29;20106;-57
2023/10/05 15:17:44;;;;;;;6.40;2.38;;;;;;;;;;4938900;29;20478;-58
2023/10/05 15:20:14;;;;;;;6.90;2.53;;;;;;;;;;4938388;29;20043;-58